AirNav   Phillips 66 Aviation Fuel
 
 910 users online  

38I Weller Airport
Urbana, Ohio, USA

GOING TO URBANA?


FAA INFORMATION EFFECTIVE 24 MAY 2018

Location

FAA Identifier: 38I
Lat/Long: 40-05-28.2100N / 083-41-21.7400W
40-05.470167N / 083-41.362333W
40.0911694 / -83.6893722
(estimated)
Elevation: 1150 ft. / 351 m (estimated)
Variation: 04W (1985)
From city: 3 miles SE of URBANA, OH
Time zone: UTC -4 (UTC -5 during Standard Time)
Zip code: 43078

Airport Operations

Airport use: Open to the public
Activation date: 11/1966
Control tower: no
ARTCC: INDIANAPOLIS CENTER
FSS: DAYTON FLIGHT SERVICE STATION
NOTAMs facility: DAY (NOTAM-D service available)
Attendance: IREG
Wind indicator: yes
Segmented circle: no

Airport Communications

CTAF/UNICOM: 123.0
WX AWOS-3 at I74 (4 nm NW): 118.325 (937-484-5863)
WX AWOS-3PT at UYF (14 nm SE): 120.85 (740-852-2844)
WX AWOS-3PT at SGH (17 nm SW): 134.975
WX AWOS-3 at MRT (17 nm NE): 119.275 (937-644-2967)
WX AWOS-3 at EDJ (18 nm N): 118.075 (937-599-4654)

Nearby radio navigation aids

VOR radial/distance  VOR name  Freq  Var
SGHr029/16.9SPRINGFIELD VOR/DME113.2004W
RODr131/20.1ROSEWOOD VORTAC117.5005W
DQNr083/32.8DAYTON VOR/DME114.5001W

 
NDB name  Hdg/Dist  Freq  Var  ID
CLARK COUNTY022/13.734104WCCJ -.-. -.-. .---
COURT HOUSE341/32.541406WCSS -.-. ... ...

Airport Services

Parking: tiedowns
Airframe service: NONE
Powerplant service: NONE
Bottled oxygen: NONE
Bulk oxygen: NONE

Runway Information

Runway 9/27

Dimensions: 2534 x 75 ft. / 772 x 23 m
Surface: turf, in good condition
Runway edge markings: 09/27 OUTLINED WITH YELLOW TIRES.
RUNWAY 9  RUNWAY 27
Latitude: 40-05.449167N40-05.491000N
Longitude: 083-41.645000W083-41.079333W
Elevation: 1150.0 ft.1150.0 ft.
Gradient: 0.8%0.8%
Traffic pattern: leftleft
Runway end identifier lights: nono
Obstructions: 75 ft. trees, 40 ft. left of centerline25 ft. pline, 45 ft. from runway, 125 ft. left of centerline, 1:1 slope to clear

Airport Ownership and Management from official FAA records

Ownership: Privately-owned
Owner: CHRISTOPHER COOK
4923 TROY RD
SPRINGFIELD, OH 45502
Phone 937-360-5308
ARPT PHYSICAL LOCATION JUST NORTH OF 3138 EAST ROUTE 29, URBANA OH 43078.
Manager: CHRISTOPHER COOK
4923 TROY RD
SPRINGFIELD, OH 45502
Phone 937-360-5308

Airport Operational Statistics

Aircraft operations: avg 25/month *
67% local general aviation
33% transient general aviation
* for 12-month period ending 03 September 2016

Instrument Procedures

There are no published instrument procedures at 38I.

Some nearby airports with instrument procedures:

I74 - Grimes Field Airport (4 nm NW)
KUYF - Madison County Airport (14 nm SE)
KSGH - Springfield-Beckley Municipal Airport (17 nm SW)
KMRT - Union County Airport (17 nm NE)
KEDJ - Bellefontaine Regional Airport (18 nm N)
 
Loc | Ops | Rwys | IFR | FBO | Links
Com | Nav | Svcs | Stats | Notes

AirNav Hotels Sweepstakes
 
Area around 38I (Weller Airport)
 
Road maps at: MapQuest Bing Google
 
Aerial photo
WARNING: Photo may not be current or correct
Aerial photo of 38I (Weller Airport)
Photo taken 12-Oct-2014
looking north.

Do you have a better or more recent aerial photo of Weller Airport that you would like to share? If so, please send us your photo.

 
Sectional chart

 
Airport distance calculator
Flying to Weller Airport? Find the distance to fly.

From to 38I

Sunrise and sunset
Times for 27-May-2018
 Local
(UTC-4)
 Zulu
(UTC)
Morning civil twilight05:3909:39
Sunrise06:1110:11
Sunset20:5300:53
Evening civil twilight21:2401:24

Current date and time
Zulu (UTC)  27-May-2018 19:48:01
Local (UTC-4)  27-May-2018 15:48:01
 
METAR
KUYF 
14nm SE 
271935Z AUTO 00000KT 10SM CLR 31/15 A2992 RMK AO2
KMRT 
17nm NE 
271935Z AUTO 19006KT 10SM BKN048 31/19 A2992 RMK AO2 T03100187
KSGH 
17nm S 
271856Z AUTO VRB04KT 10SM CLR 31/20 A2993 RMK AO2 SLP127 T03060200
KEDJ 
18nm N 
271935Z AUTO 00000KT 10SM CLR 30/15 A2994 RMK AO1
KFFO 
23nm SW 
271856Z AUTO 27005KT 10SM FEW060 SCT160 SCT190 32/17 A2991 RMK AO2 SLP125 T03150170 TSNO $
KDAY 
27nm SW 
271856Z 00000KT 10SM SCT055 BKN250 31/19 A2993 RMK AO2 SLP125 T03060194
KOSU 
28nm E 
271853Z 00000KT 10SM CLR 31/17 A2991 RMK AO2 SLP121 T03060172
TAF
KFFO 
23nm SW 
271100Z 2711/2817 21006KT 9999 SCT030 SCT250 QNH2988INS BECMG 2808/2809 21006KT 4800 BR SKC QNH2994INS BECMG 2812/2813 08006KT 9999 NSW SKC QNH2999INS TX29/2720Z TN18/2808Z
KDAY 
27nm SW 
271730Z 2718/2818 VRB04KT P6SM SCT035 SCT250 FM280000 VRB03KT P6SM SCT250 FM281000 00000KT 3SM BR SCT250 FM281300 06005KT P6SM BKN250
NOTAMs
Click for the latest NOTAMs
NOTAMs are issued by the DoD/FAA and will open in a separate window not controlled by AirNav.

 

 
 

Would you like to see your business listed on this page?

 If your business provides an interesting product or service to pilots, flight crews, aircraft, or users of the Weller Airport, you should consider listing it here.  To start the listing process, click on the button below
 
Add a business
 

Other Pages about Weller Airport

Update a link
 
Copyright © AirNav, LLC. All rights reserved. Privacy Policy  Contact